Time;durP1;ratioP1;P1;durP2;ratioP2;P2;SDS_P1;SDS_P2;PMS_P1;PMS_P2;Temp;Humidity;BMP_temperature;BMP_pressure;BME280_temperature;BME280_humidity;BME280_pressure;Samples;Min_cycle;Max_cycle;Signal;HPM_P1;HPM_P2
2021/03/28 00:02:16;;;;;;;12.00;4.78;;;11.30;53.40;;;;;;5023472;28;20061;-64
2021/03/28 00:04:58;;;;;;;12.73;5.40;;;11.30;53.60;;;;;;5029205;28;20022;-64
2021/03/28 00:07:35;;;;;;;14.38;5.05;;;11.30;53.60;;;;;;5017201;28;20037;-64
2021/03/28 00:10:01;;;;;;;18.13;4.38;;;11.30;53.60;;;;;;5024813;28;20033;-64
2021/03/28 00:12:31;;;;;;;18.40;5.70;;;11.30;53.80;;;;;;5028359;28;20021;-64
2021/03/28 00:15:04;;;;;;;15.80;5.55;;;11.30;53.80;;;;;;5010518;28;20038;-64
2021/03/28 00:17:35;;;;;;;12.50;4.57;;;11.30;53.90;;;;;;5021100;28;20492;-64
2021/03/28 00:20:15;;;;;;;15.40;4.45;;;11.30;54.00;;;;;;5024010;28;20029;-65
2021/03/28 00:22:46;;;;;;;12.63;4.85;;;11.30;54.10;;;;;;5025646;28;20040;-64
2021/03/28 00:25:31;;;;;;;33.63;7.45;;;11.30;54.20;;;;;;5010375;28;20030;-65
2021/03/28 00:27:59;;;;;;;64.28;5.50;;;11.30;54.40;;;;;;5010110;28;20476;-64
2021/03/28 00:30:32;;;;;;;14.98;4.30;;;11.30;54.40;;;;;;5025756;28;20067;-64
2021/03/28 00:32:58;;;;;;;;;;;11.20;54.90;;;;;;5044561;28;20029;-64
2021/03/28 00:35:46;;;;;;;15.68;5.70;;;11.40;54.30;;;;;;5029934;28;19923;-64
2021/03/28 00:38:24;;;;;;;14.35;4.68;;;11.30;54.40;;;;;;5026363;28;20131;-64
2021/03/28 00:41:25;;;;;;;10.48;4.93;;;11.40;54.60;;;;;;5034669;28;20109;-64
2021/03/28 00:44:12;;;;;;;15.27;5.45;;;11.30;54.80;;;;;;4983994;28;20040;-64
2021/03/28 00:47:09;;;;;;;14.32;5.57;;;11.30;54.90;;;;;;5036099;28;20021;-64
2021/03/28 00:49:39;;;;;;;15.13;4.57;;;11.30;55.00;;;;;;5037394;28;20144;-64
2021/03/28 00:52:13;;;;;;;14.32;4.53;;;11.30;55.10;;;;;;5040661;28;20036;-64
2021/03/28 00:54:55;;;;;;;12.98;4.43;;;11.30;55.30;;;;;;5037515;28;20049;-64
2021/03/28 00:57:32;;;;;;;14.73;4.60;;;11.30;55.30;;;;;;5038555;28;20108;-65
2021/03/28 01:00:35;;;;;;;12.63;4.53;;;11.30;55.40;;;;;;5039229;28;20040;-64
2021/03/28 01:03:09;;;;;;;15.68;4.95;;;11.30;55.40;;;;;;5037466;28;20497;-64
2021/03/28 01:05:45;;;;;;;;;;;11.20;55.80;;;;;;5040648;28;20029;-64
2021/03/28 01:08:25;;;;;;;19.10;6.25;;;11.30;55.40;;;;;;5047465;28;20381;-66
2021/03/28 01:11:13;;;;;;;17.02;6.45;;;11.30;55.60;;;;;;5028944;28;20487;-64
2021/03/28 01:14:13;;;;;;;16.25;6.97;;;11.30;55.80;;;;;;5036227;28;20131;-63
2021/03/28 01:17:12;;;;;;;16.20;6.35;;;10.20;55.40;;;;;;5043246;28;20033;-64
2021/03/28 01:20:07;;;;;;;16.67;6.70;;;11.30;56.00;;;;;;5031451;28;20033;-64
2021/03/28 01:23:08;;;;;;;13.07;4.97;;;11.30;56.10;;;;;;5024715;28;20032;-64
2021/03/28 01:25:40;;;;;;;16.73;6.53;;;11.30;56.30;;;;;;5024846;28;20052;-64
2021/03/28 01:28:23;;;;;;;16.83;5.45;;;11.30;56.40;;;;;;5026320;28;20060;-64
2021/03/28 01:30:56;;;;;;;14.82;5.43;;;11.30;56.40;;;;;;5033291;28;20046;-63
2021/03/28 01:34:00;;;;;;;17.55;5.47;;;11.30;56.50;;;;;;5026896;28;20033;-63
2021/03/28 01:36:41;;;;;;;19.70;6.10;;;11.30;56.60;;;;;;5019460;28;20163;-63
2021/03/28 01:39:13;;;;;;;12.18;4.60;;;11.20;56.70;;;;;;5009443;28;20296;-63
2021/03/28 01:41:44;;;;;;;12.88;4.82;;;11.20;57.00;;;;;;5021467;28;20026;-64
2021/03/28 01:44:12;;;;;;;14.27;5.75;;;11.20;57.00;;;;;;5027420;28;20026;-64
2021/03/28 01:47:08;;;;;;;9.02;4.57;;;11.20;57.20;;;;;;5006818;28;20030;-64
2021/03/28 01:50:20;;;;;;;17.35;5.57;;;11.10;57.20;;;;;;5021255;28;20038;-64
2021/03/28 01:52:53;;;;;;;14.05;4.82;;;11.10;57.40;;;;;;4985063;28;20052;-64
2021/03/28 01:55:34;;;;;;;15.75;5.03;;;11.10;57.70;;;;;;5029161;28;20084;-64
2021/03/28 01:58:12;;;;;;;13.63;4.47;;;11.00;57.80;;;;;;5028884;28;20029;-64
2021/03/28 02:01:13;;;;;;;15.45;5.75;;;11.00;58.10;;;;;;5016705;28;20028;-65
2021/03/28 02:04:14;;;;;;;13.13;4.72;;;11.00;58.20;;;;;;4940516;29;20034;-64
2021/03/28 02:06:39;;;;;;;18.25;5.50;;;11.00;58.40;;;;;;5013317;28;20045;-65
2021/03/28 02:09:40;;;;;;;11.30;3.75;;;11.00;58.40;;;;;;4996374;28;20395;-64
2021/03/28 02:12:43;;;;;;;20.88;4.72;;;11.10;58.40;;;;;;5024765;28;20030;-64
2021/03/28 02:15:30;;;;;;;12.02;4.00;;;11.10;58.40;;;;;;5015111;28;20018;-64
2021/03/28 02:18:28;;;;;;;9.73;3.15;;;11.10;58.40;;;;;;5016007;28;20053;-64
2021/03/28 02:21:07;;;;;;;11.73;3.97;;;11.10;58.50;;;;;;5023949;28;20026;-65
2021/03/28 02:23:50;;;;;;;13.32;4.15;;;11.10;58.60;;;;;;5009076;28;20060;-64
2021/03/28 02:26:24;;;;;;;16.50;4.53;;;11.10;58.80;;;;;;5029013;28;20029;-65
2021/03/28 02:29:25;;;;;;;15.00;4.95;;;11.10;58.90;;;;;;5033215;28;20360;-65
2021/03/28 02:32:39;;;;;;;13.40;3.58;;;11.10;59.00;;;;;;5020653;28;20121;-64
2021/03/28 02:35:29;;;;;;;11.20;3.70;;;11.10;59.10;;;;;;5006165;28;20157;-65
2021/03/28 02:38:25;;;;;;;10.80;2.92;;;11.10;59.10;;;;;;5013295;28;20037;-65
2021/03/28 02:41:01;;;;;;;14.55;3.80;;;11.10;59.10;;;;;;5030715;28;20155;-64
2021/03/28 02:43:52;;;;;;;16.08;3.28;;;11.10;59.10;;;;;;5015369;28;20463;-64
2021/03/28 02:46:26;;;;;;;15.95;3.33;;;11.10;59.30;;;;;;5015351;28;20498;-64
2021/03/28 02:49:29;;;;;;;9.02;3.00;;;11.10;59.40;;;;;;5028718;28;20064;-65
2021/03/28 02:52:22;;;;;;;10.57;3.00;;;11.10;59.40;;;;;;5019919;28;20091;-65
2021/03/28 02:55:10;;;;;;;8.13;2.83;;;11.10;59.40;;;;;;5010721;28;20030;-65
2021/03/28 02:57:48;;;;;;;12.73;3.30;;;11.10;59.50;;;;;;5017997;28;20456;-64
2021/03/28 03:00:19;;;;;;;11.70;3.17;;;11.10;59.60;;;;;;5019488;28;20026;-65
2021/03/28 03:02:57;;;;;;;12.38;3.28;;;11.10;59.70;;;;;;5049772;28;20061;-65
2021/03/28 03:06:04;;;;;;;9.60;3.63;;;11.10;59.80;;;;;;5008777;28;20053;-65
2021/03/28 03:08:51;;;;;;;10.80;2.88;;;11.10;59.80;;;;;;5015172;28;20037;-64
2021/03/28 03:11:48;;;;;;;13.27;2.95;;;11.10;60.00;;;;;;5011121;28;20033;-64
2021/03/28 03:14:51;;;;;;;16.65;4.90;;;11.10;60.20;;;;;;5019036;28;20423;-64
2021/03/28 03:17:25;;;;;;;11.27;3.35;;;11.00;60.30;;;;;;5016192;28;20037;-64
2021/03/28 03:20:03;;;;;;;10.52;2.95;;;11.00;60.40;;;;;;5021781;28;20060;-64
2021/03/28 03:22:37;;;;;;;12.43;4.63;;;11.10;60.40;;;;;;5048943;28;20029;-64
2021/03/28 03:25:02;;;;;;;9.35;3.17;;;11.10;60.50;;;;;;5012776;28;20029;-64
2021/03/28 03:27:43;;;;;;;13.55;3.55;;;11.00;60.60;;;;;;5011091;28;20119;-64
2021/03/28 03:30:33;;;;;;;21.70;4.50;;;11.10;60.70;;;;;;5010452;28;20356;-64
2021/03/28 03:33:17;;;;;;;12.20;3.60;;;11.00;60.70;;;;;;5010919;28;20029;-64
2021/03/28 03:35:50;;;;;;;10.35;2.70;;;11.10;60.80;;;;;;5043421;28;20025;-67
2021/03/28 03:38:25;;;;;;;10.23;2.90;;;11.10;60.70;;;;;;5031270;28;20109;-64
2021/03/28 03:41:07;;;;;;;13.65;3.72;;;11.10;60.70;;;;;;5031419;28;20033;-64
2021/03/28 03:43:43;;;;;;;14.07;4.07;;;11.10;60.70;;;;;;5030201;28;20795;-65
2021/03/28 03:46:20;;;;;;;8.93;2.80;;;11.10;60.90;;;;;;5013300;28;20045;-64
2021/03/28 03:49:17;;;;;;;10.82;2.88;;;11.10;61.00;;;;;;5027240;28;20051;-64
2021/03/28 03:51:51;;;;;;;11.15;2.90;;;11.10;61.00;;;;;;5026891;28;20018;-64
2021/03/28 03:54:46;;;;;;;10.20;3.53;;;11.10;61.00;;;;;;5017236;28;20045;-65
2021/03/28 03:57:33;;;;;;;10.10;3.85;;;11.00;61.10;;;;;;5028063;28;20394;-65
2021/03/28 04:00:14;;;;;;;11.82;2.92;;;11.10;61.20;;;;;;5034597;28;20033;-65
2021/03/28 04:03:17;;;;;;;8.70;2.42;;;11.10;61.10;;;;;;5024206;28;20040;-65
2021/03/28 04:06:01;;;;;;;10.35;3.35;;;11.10;61.10;;;;;;5029799;28;20458;-65
2021/03/28 04:08:32;;;;;;;;;;;11.00;61.60;;;;;;5031150;28;20399;-65
2021/03/28 04:11:28;;;;;;;12.98;3.25;;;11.10;61.00;;;;;;5014402;28;20011;-65
2021/03/28 04:14:35;;;;;;;18.02;4.53;;;11.10;61.20;;;;;;4998810;28;20443;-64
2021/03/28 04:17:25;;;;;;;21.02;4.70;;;11.10;61.30;;;;;;4977737;28;20034;-65
2021/03/28 04:20:19;;;;;;;15.13;4.70;;;11.10;61.40;;;;;;5012637;28;20065;-65
2021/03/28 04:22:47;;;;;;;;;;;11.00;62.00;;;;;;5011934;28;20026;-65
2021/03/28 04:25:43;;;;;;;9.85;3.42;;;11.10;61.10;;;;;;5017846;28;19916;-65
2021/03/28 04:28:24;;;;;;;15.45;3.42;;;11.10;61.10;;;;;;5026600;28;20555;-65
2021/03/28 04:30:56;;;;;;;15.35;3.75;;;11.00;61.20;;;;;;5029081;28;20052;-65
2021/03/28 04:33:43;;;;;;;9.65;3.45;;;11.10;61.40;;;;;;5038898;28;20420;-65
2021/03/28 04:36:18;;;;;;;12.32;4.05;;;11.00;61.40;;;;;;5046327;28;20096;-65
2021/03/28 04:39:03;;;;;;;13.10;3.42;;;11.10;61.30;;;;;;5037773;28;20095;-64
2021/03/28 04:41:28;;;;;;;14.90;4.25;;;11.10;61.20;;;;;;5039450;28;20022;-65
2021/03/28 04:43:58;;;;;;;14.05;4.43;;;11.20;61.20;;;;;;5041713;28;20036;-65
2021/03/28 04:46:49;;;;;;;9.60;2.88;;;11.20;61.10;;;;;;5041076;28;20026;-65
2021/03/28 04:49:34;;;;;;;11.82;4.07;;;11.20;60.90;;;;;;5028371;28;20045;-65
2021/03/28 04:52:21;;;;;;;10.30;2.92;;;11.30;60.90;;;;;;5051417;28;20029;-64
2021/03/28 04:54:47;;;;;;;13.68;3.42;;;11.20;60.90;;;;;;5048912;28;20119;-65
2021/03/28 04:57:44;;;;;;;9.68;3.15;;;11.30;60.90;;;;;;5052524;28;20167;-64
2021/03/28 05:00:40;;;;;;;10.98;4.13;;;11.30;60.80;;;;;;5038151;28;20423;-64
2021/03/28 05:03:09;;;;;;;16.08;4.50;;;11.30;60.70;;;;;;5051026;28;20580;-64
2021/03/28 05:06:07;;;;;;;20.10;3.92;;;11.30;60.70;;;;;;5044050;28;20395;-64
2021/03/28 05:08:33;;;;;;;10.02;2.83;;;11.30;60.60;;;;;;5014926;28;20052;-64
2021/03/28 05:11:36;;;;;;;11.88;3.67;;;11.40;60.70;;;;;;5046707;28;20474;-64
2021/03/28 05:14:13;;;;;;;12.75;3.22;;;11.30;60.60;;;;;;5037852;28;20556;-64
2021/03/28 05:16:45;;;;;;;9.70;2.90;;;11.30;60.60;;;;;;5042435;28;20026;-64
2021/03/28 05:19:22;;;;;;;8.38;3.17;;;11.30;60.60;;;;;;5044670;28;20033;-65
2021/03/28 05:22:17;;;;;;;7.88;2.97;;;11.30;60.70;;;;;;5067077;28;20039;-65
2021/03/28 05:24:55;;;;;;;9.00;2.90;;;11.30;60.80;;;;;;5051214;28;20059;-64
2021/03/28 05:27:39;;;;;;;8.32;2.65;;;11.30;60.90;;;;;;5035379;28;20183;-64
2021/03/28 05:30:32;;;;;;;11.95;3.38;;;11.40;60.80;;;;;;5050547;28;20025;-64
2021/03/28 05:33:19;;;;;;;8.68;3.75;;;11.40;60.70;;;;;;5049883;28;20035;-65
2021/03/28 05:36:22;;;;;;;10.45;3.28;;;11.40;60.80;;;;;;5042759;28;20451;-64
2021/03/28 05:39:16;;;;;;;11.52;3.42;;;11.40;60.70;;;;;;5046262;28;20025;-64
2021/03/28 05:41:51;;;;;;;;;;;11.30;61.40;;;;;;5051529;28;20067;-64
2021/03/28 05:44:27;;;;;;;8.90;3.22;;;11.50;60.50;;;;;;5051142;28;20007;-64
2021/03/28 05:47:30;;;;;;;12.68;2.40;;;11.50;60.60;;;;;;5049507;28;20033;-64
2021/03/28 05:50:08;;;;;;;9.43;3.15;;;11.50;60.70;;;;;;5044256;28;20034;-64
2021/03/28 05:52:59;;;;;;;8.45;3.60;;;11.50;60.60;;;;;;5046304;28;20539;-64
2021/03/28 05:55:54;;;;;;;9.00;2.72;;;11.60;60.60;;;;;;5048434;28;20112;-64
2021/03/28 05:58:38;;;;;;;6.57;2.30;;;11.60;60.60;;;;;;5030395;28;20032;-63
2021/03/28 06:01:16;;;;;;;10.23;3.08;;;11.70;60.60;;;;;;5051387;28;20023;-63
2021/03/28 06:04:19;;;;;;;9.10;2.70;;;11.70;60.60;;;;;;5046293;28;20112;-63
2021/03/28 06:07:09;;;;;;;7.75;3.25;;;11.70;60.50;;;;;;5042761;28;20029;-63
2021/03/28 06:09:59;;;;;;;5.88;3.00;;;11.70;60.50;;;;;;5044182;28;20037;-64
2021/03/28 06:12:36;;;;;;;7.53;2.80;;;11.70;60.60;;;;;;5047240;28;20021;-64
2021/03/28 06:15:33;;;;;;;9.00;3.47;;;11.80;60.50;;;;;;5025981;28;20491;-64
2021/03/28 06:18:23;;;;;;;10.43;3.58;;;11.80;60.40;;;;;;5045855;28;20033;-64
2021/03/28 06:20:58;;;;;;;9.73;3.15;;;11.80;60.40;;;;;;5047643;28;20044;-64
2021/03/28 06:23:56;;;;;;;8.20;2.58;;;11.90;60.30;;;;;;5049154;28;20060;-64
2021/03/28 06:26:43;;;;;;;15.68;3.35;;;12.00;60.20;;;;;;5048814;28;20464;-64
2021/03/28 06:29:27;;;;;;;7.80;2.65;;;12.00;60.00;;;;;;5051237;28;20058;-64
2021/03/28 06:32:13;;;;;;;11.55;3.05;;;12.00;59.90;;;;;;5057122;28;20122;-64
2021/03/28 06:35:07;;;;;;;8.93;2.75;;;12.00;60.00;;;;;;5046951;28;20048;-64
2021/03/28 06:38:10;;;;;;;5.78;2.30;;;12.10;60.00;;;;;;5046216;28;20387;-65
2021/03/28 06:40:44;;;;;;;8.32;2.70;;;12.20;59.80;;;;;;5049771;28;20047;-64
2021/03/28 06:43:37;;;;;;;8.63;2.47;;;12.40;59.40;;;;;;5045462;28;20450;-64
2021/03/28 06:46:31;;;;;;;8.80;3.40;;;12.50;58.90;;;;;;5038116;28;20031;-64
2021/03/28 06:49:29;;;;;;;11.45;2.90;;;12.70;58.70;;;;;;5037470;28;20501;-64
2021/03/28 06:52:14;;;;;;;11.50;2.78;;;12.80;58.50;;;;;;5046734;28;20081;-64
2021/03/28 06:55:01;;;;;;;15.02;5.07;;;13.00;58.10;;;;;;5039269;28;20044;-65
2021/03/28 06:57:46;;;;;;;10.20;2.80;;;13.00;57.50;;;;;;5030852;28;20069;-65
2021/03/28 07:00:35;;;;;;;11.15;3.47;;;13.10;57.40;;;;;;5042671;28;20478;-65
2021/03/28 07:03:32;;;;;;;10.57;2.65;;;13.30;57.30;;;;;;5053539;28;20476;-64
2021/03/28 07:06:19;;;;;;;11.15;3.63;;;13.70;56.60;;;;;;5031898;28;20025;-64
2021/03/28 07:08:50;;;;;;;8.90;2.80;;;14.10;55.50;;;;;;5045490;28;20580;-64
2021/03/28 07:11:47;;;;;;;8.40;2.70;;;14.60;54.30;;;;;;5040018;28;20033;-64
2021/03/28 07:14:25;;;;;;;19.05;4.03;;;14.90;53.30;;;;;;5042852;28;20056;-64
2021/03/28 07:17:21;;;;;;;9.48;2.83;;;15.00;53.00;;;;;;5028861;28;20060;-64
2021/03/28 07:19:58;;;;;;;16.30;3.15;;;14.90;53.20;;;;;;5035256;28;20088;-62
2021/03/28 07:22:52;;;;;;;10.50;3.65;;;14.70;53.40;;;;;;5033120;28;20117;-64
2021/03/28 07:25:25;;;;;;;9.05;2.80;;;14.40;53.60;;;;;;5041433;28;20017;-64
2021/03/28 07:28:06;;;;;;;8.83;3.23;;;14.30;54.30;;;;;;5044520;28;20159;-67
2021/03/28 07:31:08;;;;;;;9.45;3.38;;;14.30;54.20;;;;;;5037866;28;20049;-65
2021/03/28 07:34:01;;;;;;;12.07;3.58;;;14.30;54.50;;;;;;5023625;28;20044;-65
2021/03/28 07:36:36;;;;;;;8.75;2.75;;;14.30;54.30;;;;;;5009395;28;20033;-65
2021/03/28 07:39:20;;;;;;;10.18;3.03;;;14.40;54.50;;;;;;5025895;28;20118;-65
2021/03/28 07:42:23;;;;;;;11.68;3.53;;;14.40;54.40;;;;;;5025257;28;20103;-64
2021/03/28 07:45:07;;;;;;;11.13;3.97;;;14.40;54.40;;;;;;5024146;28;20025;-65
2021/03/28 07:48:20;;;;;;;12.43;3.65;;;14.70;54.00;;;;;;5009046;28;20041;-64
2021/03/28 07:51:08;;;;;;;10.57;4.18;;;14.90;53.60;;;;;;5027704;28;20060;-64
2021/03/28 07:53:52;;;;;;;6.40;2.80;;;15.10;53.20;;;;;;5019612;28;20025;-64
2021/03/28 07:56:30;;;;;;;12.68;3.95;;;15.40;52.90;;;;;;5021732;28;20033;-65
2021/03/28 07:59:19;;;;;;;16.65;4.35;;;15.70;52.00;;;;;;5026639;28;20037;-64
2021/03/28 08:02:18;;;;;;;10.30;4.38;;;16.10;51.00;;;;;;5019266;28;20048;-64
2021/03/28 08:05:01;;;;;;;10.43;3.28;;;16.10;50.60;;;;;;5022817;28;20104;-65
2021/03/28 08:07:39;;;;;;;12.32;3.42;;;16.20;50.90;;;;;;5015887;28;20452;-64
2021/03/28 08:10:37;;;;;;;8.60;3.47;;;16.30;50.90;;;;;;5023756;28;20107;-64
2021/03/28 08:13:14;;;;;;;8.25;3.47;;;17.30;49.50;;;;;;5017875;28;20068;-64
2021/03/28 08:16:20;;;;;;;7.35;2.97;;;19.50;46.10;;;;;;5025157;28;20053;-65
2021/03/28 08:19:25;;;;;;;7.55;3.20;;;22.10;41.00;;;;;;5025012;28;20022;-65
2021/03/28 08:22:29;;;;;;;8.80;3.60;;;23.80;36.90;;;;;;5002800;28;20099;-65
2021/03/28 08:25:22;;;;;;;12.00;4.28;;;24.50;35.00;;;;;;5022086;28;20060;-65
2021/03/28 08:28:09;;;;;;;9.43;3.45;;;24.70;34.60;;;;;;5015101;28;20041;-65
2021/03/28 08:30:48;;;;;;;8.57;3.25;;;25.20;34.00;;;;;;5017882;28;20148;-65
2021/03/28 08:33:29;;;;;;;16.10;4.35;;;25.80;32.70;;;;;;5025467;28;20028;-68
2021/03/28 08:36:32;;;;;;;9.63;3.67;;;26.40;31.80;;;;;;5022328;28;20037;-67
2021/03/28 08:39:06;;;;;;;8.35;3.05;;;27.00;31.60;;;;;;5025987;28;20117;-69
2021/03/28 08:41:54;;;;;;;10.23;3.08;;;27.70;30.80;;;;;;5018117;28;20030;-68
2021/03/28 08:44:43;;;;;;;7.53;3.17;;;28.40;29.50;;;;;;5019448;28;20452;-66
2021/03/28 08:47:29;;;;;;;10.25;3.88;;;28.40;29.00;;;;;;5017021;28;20034;-68
2021/03/28 08:50:17;;;;;;;11.13;4.07;;;28.50;29.00;;;;;;5015196;28;20021;-69
2021/03/28 08:53:14;;;;;;;7.85;3.20;;;28.90;28.90;;;;;;5011654;28;20113;-69
2021/03/28 08:56:17;;;;;;;8.65;3.17;;;29.00;28.80;;;;;;5015631;28;20480;-65
2021/03/28 08:59:05;;;;;;;8.15;3.10;;;28.10;29.30;;;;;;5022299;28;20503;-64
2021/03/28 09:01:49;;;;;;;9.77;3.33;;;27.10;30.00;;;;;;5007649;28;20055;-68
2021/03/28 09:04:34;;;;;;;11.40;3.55;;;26.00;30.70;;;;;;5032795;28;20120;-66
2021/03/28 09:07:05;;;;;;;11.93;2.92;;;24.80;32.70;;;;;;5031168;28;20025;-67
2021/03/28 09:09:57;;;;;;;8.77;2.95;;;24.00;33.30;;;;;;5028948;28;20030;-66
2021/03/28 09:12:49;;;;;;;14.50;4.00;;;22.90;35.20;;;;;;5029754;28;20529;-68
2021/03/28 09:15:36;;;;;;;11.63;3.70;;;22.90;36.10;;;;;;5019286;28;20309;-66
2021/03/28 09:18:13;;;;;;;8.85;2.80;;;24.60;34.10;;;;;;5012021;28;20133;-67
2021/03/28 09:20:53;;;;;;;8.80;3.55;;;26.10;31.70;;;;;;5017621;28;20094;-72
2021/03/28 09:23:21;;;;;;;8.93;2.97;;;26.40;30.90;;;;;;5013785;28;20062;-65
2021/03/28 09:25:58;;;;;;;7.25;2.78;;;26.40;30.30;;;;;;5016050;28;20033;-69
2021/03/28 09:28:46;;;;;;;10.82;3.70;;;26.40;30.20;;;;;;5005265;28;20120;-70
2021/03/28 09:31:49;;;;;;;8.68;2.60;;;26.30;30.30;;;;;;5029478;28;20075;-68
2021/03/28 09:34:53;;;;;;;10.57;3.07;;;26.10;30.40;;;;;;5040206;28;20029;-66
2021/03/28 09:37:44;;;;;;;12.88;3.17;;;25.20;30.70;;;;;;5044874;28;20291;-65
2021/03/28 09:40:18;;;;;;;10.27;3.22;;;24.30;32.20;;;;;;5044809;28;20481;-65
2021/03/28 09:43:03;;;;;;;10.02;3.08;;;23.50;33.00;;;;;;5047574;28;20034;-72
2021/03/28 09:46:06;;;;;;;8.80;3.33;;;22.50;34.40;;;;;;5047805;28;20029;-71
2021/03/28 09:48:46;;;;;;;10.32;3.42;;;21.60;36.00;;;;;;5044546;28;20057;-71
2021/03/28 09:51:45;;;;;;;9.55;3.28;;;20.00;36.60;;;;;;5042948;28;20025;-71
2021/03/28 09:54:42;;;;;;;11.63;3.55;;;21.30;37.30;;;;;;5041571;28;20513;-67
2021/03/28 09:57:33;;;;;;;11.45;3.53;;;21.20;37.30;;;;;;5019244;28;20124;-68
2021/03/28 10:00:27;;;;;;;8.82;3.20;;;21.10;37.40;;;;;;5043559;28;20049;-66
2021/03/28 10:03:17;;;;;;;10.65;3.85;;;20.80;37.50;;;;;;5045111;28;20120;-66
2021/03/28 10:05:44;;;;;;;13.70;3.90;;;20.20;38.50;;;;;;5049450;28;20040;-66
2021/03/28 10:08:22;;;;;;;11.43;3.72;;;19.80;39.10;;;;;;5040842;28;20041;-70
2021/03/28 10:11:30;;;;;;;8.38;2.72;;;19.30;39.40;;;;;;5045594;28;20044;-70
2021/03/28 10:14:20;;;;;;;19.92;3.75;;;18.80;39.20;;;;;;5033503;28;20033;-71
2021/03/28 10:17:20;;;;;;;8.77;2.78;;;18.60;39.80;;;;;;5044423;28;20029;-71
2021/03/28 10:19:54;;;;;;;18.65;2.88;;;18.90;39.40;;;;;;5038993;28;20103;-67
2021/03/28 10:22:23;;;;;;;8.60;2.83;;;19.20;38.90;;;;;;5043786;28;20037;-65
2021/03/28 10:25:24;;;;;;;9.13;2.63;;;19.50;38.50;;;;;;5042332;28;20022;-65
2021/03/28 10:28:10;;;;;;;8.73;2.83;;;20.00;38.10;;;;;;5036447;28;20044;-65
2021/03/28 10:31:00;;;;;;;8.32;2.65;;;20.10;37.70;;;;;;5044516;28;20064;-65
2021/03/28 10:33:35;;;;;;;7.57;2.90;;;20.10;37.60;;;;;;5041298;28;20128;-66
